createdAt,value
2023-10-09T00:01:11.046Z,15.20
2023-10-09T00:03:39.203Z,14.73
2023-10-09T00:06:06.533Z,15.52
2023-10-09T00:08:33.305Z,14.10
2023-10-09T00:11:22.227Z,13.52
2023-10-09T00:13:53.420Z,15.18
2023-10-09T00:16:33.861Z,15.13
2023-10-09T00:19:20.095Z,14.00
2023-10-09T00:21:48.477Z,14.50
2023-10-09T00:24:17.646Z,15.07
2023-10-09T00:26:47.446Z,15.25
2023-10-09T00:29:23.119Z,14.93
2023-10-09T00:32:07.409Z,15.52
2023-10-09T00:34:40.730Z,15.77
2023-10-09T00:37:17.613Z,15.75
2023-10-09T00:39:45.274Z,17.38
2023-10-09T00:42:28.566Z,16.30
2023-10-09T00:44:55.800Z,16.80
2023-10-09T00:47:23.602Z,16.58
2023-10-09T00:50:00.387Z,15.40
2023-10-09T00:52:33.857Z,16.30
2023-10-09T00:55:05.617Z,15.40
2023-10-09T00:57:35.222Z,14.88
2023-10-09T01:00:02.044Z,14.93
2023-10-09T01:02:37.102Z,15.18
2023-10-09T01:05:20.232Z,14.85
2023-10-09T01:07:51.792Z,15.60
2023-10-09T01:10:36.981Z,15.32
2023-10-09T01:13:04.398Z,16.17
2023-10-09T01:15:37.423Z,17.88
2023-10-09T01:18:05.946Z,15.00
2023-10-09T01:23:12.502Z,16.80
2023-10-09T01:25:46.592Z,19.17
2023-10-09T01:28:16.925Z,18.63
2023-10-09T01:30:44.303Z,18.65
2023-10-09T01:33:23.727Z,16.77
2023-10-09T01:35:53.594Z,19.45
2023-10-09T01:38:26.034Z,19.67
2023-10-09T01:40:53.196Z,20.60
2023-10-09T01:43:20.182Z,19.98
2023-10-09T01:45:47.909Z,20.38
2023-10-09T01:48:16.127Z,19.98
2023-10-09T01:50:49.844Z,19.42
2023-10-09T01:53:19.616Z,20.55
2023-10-09T01:55:47.106Z,19.58
2023-10-09T01:58:23.044Z,19.13
2023-10-09T02:00:54.825Z,21.27
2023-10-09T02:03:25.360Z,20.90
2023-10-09T02:05:54.719Z,19.25
2023-10-09T02:08:28.231Z,22.83
2023-10-09T02:10:57.197Z,22.80
2023-10-09T02:13:30.642Z,21.35
2023-10-09T02:16:14.041Z,20.38
2023-10-09T02:18:41.561Z,21.67
2023-10-09T02:21:08.945Z,21.70
2023-10-09T02:23:52.043Z,20.98
2023-10-09T02:26:26.118Z,21.15
2023-10-09T02:29:01.034Z,22.30
2023-10-09T02:31:36.616Z,22.42
2023-10-09T02:34:06.586Z,21.30
2023-10-09T02:36:36.177Z,23.52
2023-10-09T02:39:06.852Z,20.98
2023-10-09T02:41:35.579Z,22.13
2023-10-09T02:44:11.802Z,22.63
2023-10-09T02:46:41.152Z,22.75
2023-10-09T02:49:07.944Z,20.40
2023-10-09T02:51:34.964Z,22.77
2023-10-09T02:54:18.998Z,22.70
2023-10-09T02:56:49.045Z,22.17
2023-10-09T02:59:15.703Z,22.08
2023-10-09T03:01:42.458Z,21.85
2023-10-09T03:04:12.404Z,20.90
2023-10-09T03:06:50.949Z,20.60
2023-10-09T03:09:28.546Z,21.08
2023-10-09T03:12:03.895Z,20.40
2023-10-09T03:14:32.790Z,20.55
2023-10-09T03:19:30.781Z,19.83
2023-10-09T03:22:00.513Z,21.35
2023-10-09T03:24:28.913Z,21.70
2023-10-09T03:31:54.513Z,19.63
2023-10-09T03:34:21.049Z,18.73
2023-10-09T03:36:49.243Z,20.80
2023-10-09T03:39:34.862Z,19.60
2023-10-09T03:42:06.068Z,20.15
2023-10-09T03:44:35.068Z,18.90
2023-10-09T03:47:02.954Z,19.17
2023-10-09T03:49:30.620Z,19.92
2023-10-09T03:51:57.232Z,19.87
2023-10-09T03:54:25.639Z,21.10
2023-10-09T03:59:21.162Z,19.17
2023-10-09T04:01:54.217Z,21.60
2023-10-09T04:04:24.395Z,19.38
2023-10-09T04:06:54.954Z,18.35
2023-10-09T04:09:21.652Z,18.25
2023-10-09T04:11:58.755Z,18.25
2023-10-09T04:14:34.363Z,18.75
2023-10-09T04:17:27.507Z,17.90
2023-10-09T04:20:12.603Z,18.63
2023-10-09T04:22:41.108Z,17.90
2023-10-09T04:27:54.563Z,18.17
2023-10-09T04:30:21.114Z,17.08
2023-10-09T04:32:47.906Z,17.15
2023-10-09T04:35:20.506Z,17.48
2023-10-09T04:37:53.346Z,18.65
2023-10-09T04:40:38.130Z,16.42
2023-10-09T04:43:08.147Z,16.25
2023-10-09T04:45:56.796Z,16.45
2023-10-09T04:48:34.173Z,18.90
2023-10-09T04:51:33.822Z,16.60
2023-10-09T04:55:08.330Z,15.65
2023-10-09T04:58:40.471Z,16.92
2023-10-09T05:02:06.946Z,16.20
2023-10-09T05:05:45.394Z,17.63
2023-10-09T05:09:14.773Z,16.15
2023-10-09T05:12:47.634Z,15.77
2023-10-09T05:16:21.597Z,14.50
2023-10-09T05:20:02.267Z,15.77
2023-10-09T05:23:27.513Z,14.45
2023-10-09T05:26:52.612Z,15.55
2023-10-09T05:30:27.569Z,15.38
2023-10-09T05:34:02.510Z,17.27
2023-10-09T05:37:35.496Z,15.20
2023-10-09T05:41:27.553Z,13.88
2023-10-09T05:45:11.391Z,15.25
2023-10-09T05:48:40.073Z,16.00
2023-10-09T05:52:25.103Z,16.70
2023-10-09T05:56:08.597Z,16.80
2023-10-09T05:59:52.285Z,16.33
2023-10-09T06:03:20.504Z,15.05
2023-10-09T06:06:46.536Z,15.80
2023-10-09T06:10:21.348Z,15.43
2023-10-09T06:13:49.448Z,16.30
2023-10-09T06:17:14.562Z,16.50
2023-10-09T06:21:09.085Z,15.82
2023-10-09T06:24:52.788Z,15.48
2023-10-09T06:31:59.081Z,15.25
2023-10-09T06:35:32.406Z,15.50
2023-10-09T06:39:18.598Z,15.80
2023-10-09T06:42:43.761Z,16.67
2023-10-09T06:46:28.347Z,14.90
2023-10-09T06:50:26.911Z,15.52
2023-10-09T06:53:55.540Z,16.80
2023-10-09T06:57:43.482Z,15.70
2023-10-09T07:01:26.538Z,15.93
2023-10-09T07:04:55.904Z,16.60
2023-10-09T07:08:33.414Z,16.52
2023-10-09T07:12:04.291Z,16.23
2023-10-09T07:16:01.940Z,17.23
2023-10-09T07:19:43.096Z,14.90
2023-10-09T07:23:15.065Z,16.90
2023-10-09T07:26:54.133Z,16.65
2023-10-09T07:30:30.145Z,16.15
2023-10-09T07:33:58.518Z,16.67
2023-10-09T07:37:24.613Z,17.17
2023-10-09T07:41:21.120Z,17.90
2023-10-09T07:44:56.787Z,16.70
2023-10-09T07:48:26.940Z,16.30
2023-10-09T07:51:53.754Z,17.23
2023-10-09T07:55:30.742Z,17.98
2023-10-09T07:59:01.410Z,16.17
2023-10-09T08:02:35.288Z,16.40
2023-10-09T08:06:20.459Z,15.77
2023-10-09T08:09:48.906Z,14.63
2023-10-09T08:13:35.707Z,16.85
2023-10-09T08:17:16.774Z,15.87
2023-10-09T08:21:03.584Z,13.80
2023-10-09T08:24:42.292Z,15.27
2023-10-09T08:28:23.889Z,14.43
2023-10-09T08:31:58.039Z,16.50
2023-10-09T08:35:34.331Z,15.38
2023-10-09T08:39:00.314Z,16.10
2023-10-09T08:42:26.726Z,15.32
2023-10-09T08:46:02.200Z,14.50
2023-10-09T08:49:29.198Z,15.63
2023-10-09T08:52:56.305Z,14.82
2023-10-09T08:56:25.286Z,16.30
2023-10-09T08:59:59.767Z,13.85
2023-10-09T09:03:25.401Z,15.10
2023-10-09T09:06:57.633Z,13.88
2023-10-09T09:10:36.304Z,14.52
2023-10-09T09:14:08.624Z,13.98
2023-10-09T09:17:36.198Z,15.15
2023-10-09T09:21:23.601Z,15.10
2023-10-09T09:25:04.408Z,13.77
2023-10-09T09:28:56.147Z,13.95
2023-10-09T09:32:31.275Z,14.15
2023-10-09T09:35:57.021Z,13.90
2023-10-09T09:39:29.252Z,14.68
2023-10-09T09:43:05.808Z,13.75
2023-10-09T09:46:40.814Z,14.88
2023-10-09T09:50:14.619Z,14.00
2023-10-09T09:53:39.708Z,14.63
2023-10-09T09:57:11.952Z,14.10
2023-10-09T10:00:44.603Z,13.88
2023-10-09T10:04:21.680Z,13.75
2023-10-09T10:07:50.803Z,12.82
2023-10-09T10:11:49.627Z,12.73
2023-10-09T10:15:17.487Z,13.80
2023-10-09T10:19:22.362Z,12.23
2023-10-09T10:22:52.423Z,11.43
2023-10-09T10:26:31.400Z,11.30
2023-10-09T10:30:34.645Z,10.75
2023-10-09T10:34:07.848Z,10.13
2023-10-09T10:37:51.753Z,9.88
2023-10-09T10:41:23.797Z,9.85
2023-10-09T10:44:54.876Z,10.43
2023-10-09T10:49:01.938Z,9.00
2023-10-09T10:51:40.878Z,9.95
2023-10-09T10:54:28.876Z,10.30
2023-10-09T10:59:29.568Z,9.23
2023-10-09T11:02:15.312Z,9.10
2023-10-09T11:04:45.530Z,7.78
2023-10-09T11:07:12.354Z,8.73
2023-10-09T11:10:10.619Z,8.50
2023-10-09T11:12:43.095Z,8.05
2023-10-09T11:15:30.504Z,7.63
2023-10-09T11:18:06.403Z,7.53
2023-10-09T11:20:34.867Z,8.10
2023-10-09T11:23:13.613Z,7.95
2023-10-09T11:25:50.833Z,7.97
2023-10-09T11:28:49.103Z,7.30
2023-10-09T11:31:19.264Z,7.40
2023-10-09T11:33:50.073Z,8.10
2023-10-09T11:36:18.100Z,7.90
2023-10-09T11:38:50.387Z,7.78
2023-10-09T11:41:20.638Z,7.97
2023-10-09T11:43:53.933Z,7.30
2023-10-09T11:46:39.830Z,7.20
2023-10-09T11:49:22.116Z,8.00
2023-10-09T11:52:07.127Z,7.47
2023-10-09T11:54:34.585Z,7.80
2023-10-09T11:57:03.676Z,7.03
2023-10-09T11:59:35.537Z,7.35
2023-10-09T12:02:02.256Z,7.90
2023-10-09T12:04:31.483Z,6.57
2023-10-09T12:07:11.521Z,6.55
2023-10-09T12:09:41.118Z,6.57
2023-10-09T12:12:08.465Z,6.95
2023-10-09T12:14:36.364Z,7.45
2023-10-09T12:17:06.584Z,6.40
2023-10-09T12:19:36.848Z,7.28
2023-10-09T12:22:05.083Z,6.63
2023-10-09T12:24:32.126Z,6.43
2023-10-09T12:26:58.715Z,6.85
2023-10-09T12:29:25.275Z,6.80
2023-10-09T12:31:59.495Z,6.38
2023-10-09T12:34:27.754Z,5.90
2023-10-09T12:39:21.623Z,6.50
2023-10-09T12:41:48.303Z,5.53
2023-10-09T12:44:21.070Z,5.45
2023-10-09T12:46:53.899Z,5.15
2023-10-09T12:49:26.479Z,5.18
2023-10-09T12:51:54.032Z,5.65
2023-10-09T12:54:28.667Z,5.57
2023-10-09T12:56:56.290Z,5.50
2023-10-09T12:59:24.383Z,4.68
2023-10-09T13:04:25.148Z,5.13
2023-10-09T13:06:55.549Z,5.68
2023-10-09T13:09:44.069Z,5.20
2023-10-09T13:12:19.245Z,5.93
2023-10-09T13:14:48.614Z,5.20
2023-10-09T13:17:15.304Z,5.63
2023-10-09T13:19:41.919Z,5.63
2023-10-09T13:22:14.667Z,5.18
2023-10-09T13:24:41.428Z,6.00
2023-10-09T13:27:11.075Z,5.43
2023-10-09T13:29:41.244Z,5.18
2023-10-09T13:32:14.657Z,5.65
2023-10-09T13:34:45.687Z,5.20
2023-10-09T13:37:15.292Z,5.18
2023-10-09T13:39:53.606Z,6.30
2023-10-09T13:42:20.415Z,5.45
2023-10-09T13:44:49.854Z,5.53
2023-10-09T13:47:30.616Z,4.70
2023-10-09T13:49:58.603Z,4.70
2023-10-09T13:52:25.009Z,5.50
2023-10-09T13:54:51.760Z,5.32
2023-10-09T13:57:18.229Z,5.68
2023-10-09T13:59:50.642Z,5.75
2023-10-09T14:02:22.517Z,5.88
2023-10-09T14:04:49.385Z,5.05
2023-10-09T14:07:21.727Z,5.50
2023-10-09T14:10:08.540Z,5.40
2023-10-09T14:12:35.678Z,5.07
2023-10-09T14:15:04.898Z,5.30
2023-10-09T14:17:31.471Z,5.63
2023-10-09T14:20:17.256Z,4.88
2023-10-09T14:22:43.872Z,6.32
2023-10-09T14:25:16.205Z,5.78
2023-10-09T14:27:42.561Z,5.60
2023-10-09T14:30:13.968Z,5.38
2023-10-09T14:32:51.041Z,5.25
2023-10-09T14:35:17.674Z,5.33
2023-10-09T14:37:44.163Z,4.88
2023-10-09T14:40:14.538Z,5.38
2023-10-09T14:42:45.305Z,4.88
2023-10-09T14:45:16.728Z,4.82
2023-10-09T14:47:43.681Z,5.05
2023-10-09T14:50:11.286Z,4.82
2023-10-09T14:52:39.843Z,5.47
2023-10-09T14:55:07.140Z,5.15
2023-10-09T14:57:36.347Z,6.03
2023-10-09T15:00:08.726Z,6.45
2023-10-09T15:02:35.082Z,7.05
2023-10-09T15:05:01.946Z,6.18
2023-10-09T15:07:40.159Z,6.32
2023-10-09T15:10:10.395Z,5.13
2023-10-09T15:12:40.996Z,5.28
2023-10-09T15:15:18.467Z,5.55
2023-10-09T15:17:46.972Z,5.32
2023-10-09T15:20:16.683Z,5.50
2023-10-09T15:22:43.397Z,5.00
2023-10-09T15:25:10.134Z,4.90
2023-10-09T15:27:40.407Z,5.50
2023-10-09T15:30:09.203Z,5.40
2023-10-09T15:32:36.247Z,5.13
2023-10-09T15:35:03.818Z,5.97
2023-10-09T15:37:30.553Z,6.90
2023-10-09T15:39:56.890Z,5.72
2023-10-09T15:42:23.571Z,5.57
2023-10-09T15:44:56.033Z,5.53
2023-10-09T15:47:22.853Z,5.43
2023-10-09T15:49:50.127Z,5.45
2023-10-09T15:52:17.841Z,5.13
2023-10-09T15:54:45.467Z,5.50
2023-10-09T15:57:14.054Z,6.18
2023-10-09T15:59:40.911Z,5.57
2023-10-09T16:02:07.494Z,5.60
2023-10-09T16:04:35.192Z,5.13
2023-10-09T16:07:02.149Z,5.95
2023-10-09T16:09:30.734Z,5.70
2023-10-09T16:11:57.223Z,6.18
2023-10-09T16:14:24.491Z,5.47
2023-10-09T16:16:51.682Z,5.60
2023-10-09T16:19:18.711Z,5.50
2023-10-09T16:21:45.284Z,5.50
2023-10-09T16:24:11.891Z,5.25
2023-10-09T16:26:42.924Z,5.32
2023-10-09T16:29:10.593Z,5.57
2023-10-09T16:31:39.493Z,4.85
2023-10-09T16:34:10.500Z,5.82
2023-10-09T16:36:37.258Z,5.50
2023-10-09T16:39:19.651Z,5.80
2023-10-09T16:41:46.833Z,5.18
2023-10-09T16:44:17.496Z,5.80
2023-10-09T16:46:47.652Z,5.30
2023-10-09T16:49:14.755Z,5.47
2023-10-09T16:51:44.051Z,5.95
2023-10-09T16:54:16.279Z,5.80
2023-10-09T16:56:45.954Z,6.45
2023-10-09T16:59:16.096Z,5.88
2023-10-09T17:01:43.146Z,5.68
2023-10-09T17:04:19.073Z,5.78
2023-10-09T17:06:46.160Z,5.38
2023-10-09T17:09:15.280Z,6.25
2023-10-09T17:11:42.283Z,5.95
2023-10-09T17:14:13.982Z,5.38
2023-10-09T17:16:46.327Z,6.55
2023-10-09T17:19:15.276Z,7.30
2023-10-09T17:21:42.157Z,7.20
2023-10-09T17:24:12.410Z,6.78
2023-10-09T17:26:46.578Z,6.55
2023-10-09T17:29:13.865Z,6.55
2023-10-09T17:31:43.142Z,6.77
2023-10-09T17:34:09.720Z,6.03
2023-10-09T17:36:36.713Z,6.50
2023-10-09T17:39:06.003Z,6.70
2023-10-09T17:41:35.886Z,6.00
2023-10-09T17:44:06.315Z,6.95
2023-10-09T17:46:32.826Z,6.55
2023-10-09T17:49:00.457Z,6.78
2023-10-09T17:51:27.974Z,6.85
2023-10-09T17:53:54.481Z,7.20
2023-10-09T17:56:26.913Z,6.32
2023-10-09T17:58:54.608Z,6.05
2023-10-09T18:01:26.211Z,6.72
2023-10-09T18:03:53.119Z,7.25
2023-10-09T18:06:19.987Z,7.13
2023-10-09T18:08:49.080Z,6.40
2023-10-09T18:11:16.025Z,7.03
2023-10-09T18:13:42.782Z,8.20
2023-10-09T18:16:13.281Z,7.70
2023-10-09T18:18:45.268Z,7.70
2023-10-09T18:21:14.483Z,7.63
2023-10-09T18:23:45.723Z,7.85
2023-10-09T18:26:15.777Z,7.60
2023-10-09T18:28:42.923Z,7.15
2023-10-09T18:31:14.688Z,7.78
2023-10-09T18:33:42.422Z,7.45
2023-10-09T18:36:09.130Z,7.25
2023-10-09T18:38:39.533Z,7.93
2023-10-09T18:41:09.396Z,8.02
2023-10-09T18:43:41.609Z,8.10
2023-10-09T18:46:15.294Z,7.32
2023-10-09T18:48:41.841Z,7.20
2023-10-09T18:51:15.142Z,7.70
2023-10-09T18:53:41.843Z,7.70
2023-10-09T18:56:15.156Z,7.03
2023-10-09T18:58:45.644Z,7.45
2023-10-09T19:01:15.424Z,6.80
2023-10-09T19:03:42.586Z,6.97
2023-10-09T19:06:09.479Z,6.72
2023-10-09T19:08:35.976Z,6.93
2023-10-09T19:11:02.677Z,7.30
2023-10-09T19:13:30.898Z,7.13
2023-10-09T19:18:25.737Z,7.70
2023-10-09T19:20:54.059Z,5.85
2023-10-09T19:25:48.084Z,7.07
2023-10-09T19:28:16.315Z,7.40
2023-10-09T19:33:09.212Z,7.28
2023-10-09T19:35:35.880Z,7.35
2023-10-09T19:38:02.446Z,6.85
2023-10-09T19:40:29.936Z,7.03
2023-10-09T19:42:57.446Z,7.90
2023-10-09T19:45:23.804Z,7.38
2023-10-09T19:47:50.399Z,7.78
2023-10-09T19:50:16.980Z,7.40
2023-10-09T19:52:44.065Z,7.20
2023-10-09T19:55:10.598Z,7.10
2023-10-09T19:57:37.184Z,8.38
2023-10-09T20:00:08.215Z,6.40
2023-10-09T20:02:37.050Z,8.27
2023-10-09T20:05:03.864Z,7.68
2023-10-09T20:07:30.239Z,7.38
2023-10-09T20:09:59.422Z,8.00
2023-10-09T20:12:31.105Z,7.38
2023-10-09T20:14:58.017Z,8.80
2023-10-09T20:17:25.363Z,9.20
2023-10-09T20:19:54.394Z,9.17
2023-10-09T20:22:24.112Z,9.70
2023-10-09T20:24:50.480Z,9.38
2023-10-09T20:27:18.579Z,9.07
2023-10-09T20:29:45.046Z,10.35
2023-10-09T20:32:17.713Z,9.52
2023-10-09T20:34:45.260Z,9.40
2023-10-09T20:37:13.466Z,10.32
2023-10-09T20:39:41.915Z,9.68
2023-10-09T20:42:08.432Z,9.85
2023-10-09T20:44:36.583Z,9.60
2023-10-09T20:47:04.336Z,10.13
2023-10-09T20:49:33.098Z,10.85
2023-10-09T20:51:59.497Z,10.32
2023-10-09T20:54:26.512Z,11.00
2023-10-09T20:56:53.205Z,10.82
2023-10-09T20:59:19.866Z,11.23
2023-10-09T21:01:46.641Z,10.85
2023-10-09T21:04:13.408Z,11.68
2023-10-09T21:06:39.814Z,11.25
2023-10-09T21:09:08.180Z,11.25
2023-10-09T21:14:01.546Z,11.40
2023-10-09T21:16:28.032Z,11.88
2023-10-09T21:18:57.126Z,11.85
2023-10-09T21:21:24.787Z,10.75
2023-10-09T21:23:51.323Z,10.75
2023-10-09T21:26:19.019Z,11.27
2023-10-09T21:28:47.582Z,11.27
2023-10-09T21:31:16.883Z,11.57
2023-10-09T21:33:44.334Z,12.50
2023-10-09T21:36:10.837Z,10.52
2023-10-09T21:38:38.666Z,12.32
2023-10-09T21:41:13.508Z,11.27
2023-10-09T21:43:40.738Z,12.32
2023-10-09T21:46:08.199Z,11.18
2023-10-09T21:48:35.603Z,11.80
2023-10-09T21:51:01.967Z,10.87
2023-10-09T21:53:28.899Z,11.85
2023-10-09T21:56:04.912Z,13.50
2023-10-09T21:58:31.445Z,12.63
2023-10-09T22:00:57.922Z,12.68
2023-10-09T22:03:28.449Z,12.55
2023-10-09T22:05:57.176Z,12.25
2023-10-09T22:08:24.148Z,11.95
2023-10-09T22:10:50.795Z,11.82
2023-10-09T22:13:19.653Z,12.85
2023-10-09T22:15:49.530Z,11.23
2023-10-09T22:18:22.657Z,11.43
2023-10-09T22:20:49.497Z,13.60
2023-10-09T22:23:19.733Z,13.05
2023-10-09T22:25:56.871Z,13.60
2023-10-09T22:28:26.910Z,12.85
2023-10-09T22:30:57.352Z,14.15
2023-10-09T22:33:27.157Z,12.82
2023-10-09T22:35:56.482Z,12.90
2023-10-09T22:38:23.166Z,13.30
2023-10-09T22:40:50.031Z,12.93
2023-10-09T22:43:18.094Z,13.02
2023-10-09T22:45:44.673Z,12.85
2023-10-09T22:48:15.447Z,13.18
2023-10-09T22:50:49.006Z,12.75
2023-10-09T22:53:40.886Z,13.40
2023-10-09T22:56:08.382Z,12.98
2023-10-09T22:58:39.059Z,13.73
2023-10-09T23:01:13.817Z,14.00
2023-10-09T23:03:42.695Z,13.88
2023-10-09T23:06:14.648Z,13.50
2023-10-09T23:08:42.668Z,13.80
2023-10-09T23:11:15.632Z,13.43
2023-10-09T23:14:14.994Z,14.25
2023-10-09T23:16:57.965Z,14.00
2023-10-09T23:19:41.471Z,13.02
2023-10-09T23:22:09.124Z,14.68
2023-10-09T23:24:49.821Z,14.27
2023-10-09T23:27:39.297Z,15.20
2023-10-09T23:30:27.017Z,14.43
2023-10-09T23:33:09.040Z,13.75
2023-10-09T23:35:46.508Z,15.27
2023-10-09T23:38:19.895Z,14.30
2023-10-09T23:40:46.532Z,14.27
2023-10-09T23:43:14.405Z,13.68
2023-10-09T23:45:42.012Z,14.60
2023-10-09T23:48:24.887Z,15.83
2023-10-09T23:50:57.982Z,15.35
2023-10-09T23:53:29.878Z,14.55
2023-10-09T23:56:09.481Z,14.77
2023-10-09T23:58:36.575Z,16.85
